createdAt,value
2022-08-30T00:02:08.913Z,22.32
2022-08-30T00:04:36.206Z,22.32
2022-08-30T00:07:03.776Z,22.25
2022-08-30T00:09:32.603Z,22.25
2022-08-30T00:12:00.595Z,22.44
2022-08-30T00:14:28.802Z,22.39
2022-08-30T00:16:56.146Z,22.43
2022-08-30T00:19:23.455Z,22.43
2022-08-30T00:21:50.884Z,22.39
2022-08-30T00:24:18.124Z,22.34
2022-08-30T00:26:45.864Z,22.27
2022-08-30T00:29:13.134Z,22.25
2022-08-30T00:31:40.369Z,22.32
2022-08-30T00:34:07.707Z,22.35
2022-08-30T00:36:34.944Z,22.40
2022-08-30T00:39:02.290Z,22.44
2022-08-30T00:41:30.003Z,22.37
2022-08-30T00:43:57.285Z,22.39
2022-08-30T00:46:24.686Z,22.44
2022-08-30T00:48:52.064Z,22.35
2022-08-30T00:51:20.521Z,22.31
2022-08-30T00:53:52.838Z,22.21
2022-08-30T00:56:20.723Z,22.01
2022-08-30T00:58:51.668Z,21.87
2022-08-30T01:01:19.421Z,21.82
2022-08-30T01:03:47.617Z,21.78
2022-08-30T01:06:16.091Z,21.89
2022-08-30T01:08:44.780Z,21.79
2022-08-30T01:11:14.991Z,21.66
2022-08-30T01:13:43.986Z,21.70
2022-08-30T01:16:11.511Z,21.73
2022-08-30T01:18:39.679Z,21.86
2022-08-30T01:21:32.571Z,21.84
2022-08-30T01:24:01.960Z,21.83
2022-08-30T01:26:30.772Z,21.76
2022-08-30T01:29:02.481Z,21.77
2022-08-30T01:31:29.832Z,21.64
2022-08-30T01:33:57.171Z,21.82
2022-08-30T01:36:24.977Z,21.77
2022-08-30T01:38:56.378Z,21.88
2022-08-30T01:41:34.616Z,21.75
2022-08-30T01:44:06.247Z,21.71
2022-08-30T01:46:40.779Z,21.67
2022-08-30T01:49:12.150Z,21.67
2022-08-30T01:51:40.187Z,21.77
2022-08-30T01:54:07.645Z,21.73
2022-08-30T01:56:35.055Z,21.67
2022-08-30T01:59:03.253Z,21.64
2022-08-30T02:01:33.209Z,21.73
2022-08-30T02:04:00.723Z,21.61
2022-08-30T02:06:28.268Z,21.78
2022-08-30T02:08:55.622Z,21.73
2022-08-30T02:11:23.031Z,21.70
2022-08-30T02:13:50.370Z,21.66
2022-08-30T02:16:21.794Z,21.72
2022-08-30T02:18:50.823Z,21.57
2022-08-30T02:21:19.433Z,22.41
2022-08-30T02:23:47.533Z,22.85
2022-08-30T02:26:16.035Z,23.27
2022-08-30T02:28:49.839Z,23.58
2022-08-30T02:31:22.529Z,23.78
2022-08-30T02:33:52.394Z,23.33
2022-08-30T02:36:20.934Z,23.76
2022-08-30T02:38:49.162Z,23.43
2022-08-30T02:41:16.908Z,23.71
2022-08-30T02:43:44.326Z,23.98
2022-08-30T02:46:12.341Z,23.97
2022-08-30T02:48:40.046Z,24.13
2022-08-30T02:51:12.169Z,23.64
2022-08-30T02:53:41.710Z,23.76
2022-08-30T02:56:10.657Z,23.71
2022-08-30T02:58:38.374Z,23.91
2022-08-30T03:01:06.281Z,23.94
2022-08-30T03:03:33.775Z,24.08
2022-08-30T03:06:01.421Z,24.10
2022-08-30T03:08:29.671Z,24.13
2022-08-30T03:10:57.029Z,23.87
2022-08-30T03:13:25.105Z,23.83
2022-08-30T03:15:52.550Z,23.84
2022-08-30T03:18:21.632Z,23.64
2022-08-30T03:20:54.228Z,23.52
2022-08-30T03:23:23.467Z,23.10
2022-08-30T03:25:51.777Z,23.31
2022-08-30T03:28:19.286Z,23.12
2022-08-30T03:30:46.651Z,23.52
2022-08-30T03:33:14.014Z,23.61
2022-08-30T03:35:42.393Z,23.36
2022-08-30T03:38:09.980Z,23.46
2022-08-30T03:40:37.541Z,23.50
2022-08-30T03:43:05.720Z,23.13
2022-08-30T03:45:33.170Z,23.55
2022-08-30T03:48:00.860Z,23.45
2022-08-30T03:50:29.195Z,23.59
2022-08-30T03:52:57.542Z,23.53
2022-08-30T03:55:25.015Z,23.62
2022-08-30T03:57:52.892Z,23.54
2022-08-30T04:00:21.623Z,23.40
2022-08-30T04:02:50.163Z,23.54
2022-08-30T04:05:18.719Z,23.62
2022-08-30T04:07:46.754Z,23.13
2022-08-30T04:10:14.800Z,23.31
2022-08-30T04:12:46.297Z,23.33
2022-08-30T04:15:19.086Z,23.21
2022-08-30T04:17:47.451Z,23.32
2022-08-30T04:20:16.332Z,23.20
2022-08-30T04:22:44.476Z,23.22
2022-08-30T04:25:15.933Z,23.06
2022-08-30T04:27:45.613Z,22.99
2022-08-30T04:30:15.160Z,22.49
2022-08-30T04:32:43.742Z,22.35
2022-08-30T04:35:14.754Z,22.25
2022-08-30T04:37:50.908Z,22.26
2022-08-30T04:40:18.913Z,22.54
2022-08-30T04:42:49.305Z,22.38
2022-08-30T04:45:19.935Z,22.60
2022-08-30T04:47:51.225Z,22.43
2022-08-30T04:50:24.997Z,22.45
2022-08-30T04:52:58.415Z,22.91
2022-08-30T04:55:29.297Z,22.49
2022-08-30T04:57:56.951Z,22.20
2022-08-30T05:00:24.362Z,22.58
2022-08-30T05:02:55.936Z,22.69
2022-08-30T05:05:37.525Z,22.88
2022-08-30T05:08:21.060Z,22.39
2022-08-30T05:10:53.344Z,22.57
2022-08-30T05:13:35.341Z,22.22
2022-08-30T05:16:07.066Z,22.43
2022-08-30T05:18:37.701Z,22.22
2022-08-30T05:21:12.303Z,22.73
2022-08-30T05:23:46.522Z,22.69
2022-08-30T05:26:28.660Z,22.74
2022-08-30T05:28:59.850Z,22.77
2022-08-30T05:31:35.376Z,22.73
2022-08-30T05:34:05.765Z,22.76
2022-08-30T05:36:36.032Z,22.96
2022-08-30T05:39:07.199Z,23.06
2022-08-30T05:41:37.985Z,23.07
2022-08-30T05:44:07.436Z,23.12
2022-08-30T05:46:35.852Z,23.39
2022-08-30T05:49:09.983Z,23.57
2022-08-30T05:51:43.423Z,23.70
2022-08-30T05:54:14.417Z,23.33
2022-08-30T05:56:50.014Z,23.29
2022-08-30T05:59:25.918Z,23.44
2022-08-30T06:02:00.387Z,23.51
2022-08-30T06:04:31.246Z,23.29
2022-08-30T06:07:02.189Z,23.17
2022-08-30T06:09:32.199Z,23.03
2022-08-30T06:12:05.668Z,23.35
2022-08-30T06:14:38.894Z,23.16
2022-08-30T06:17:07.197Z,23.42
2022-08-30T06:19:37.894Z,23.50
2022-08-30T06:22:06.824Z,23.37
2022-08-30T06:24:56.349Z,23.56
2022-08-30T06:27:31.542Z,23.68
2022-08-30T06:30:02.724Z,23.62
2022-08-30T06:32:34.779Z,23.65
2022-08-30T06:35:02.090Z,23.78
2022-08-30T06:37:34.757Z,23.67
2022-08-30T06:40:03.303Z,23.51
2022-08-30T06:42:40.117Z,23.50
2022-08-30T06:45:13.262Z,23.36
2022-08-30T06:47:44.862Z,23.31
2022-08-30T06:50:13.615Z,23.27
2022-08-30T06:52:45.262Z,23.54
2022-08-30T06:55:20.886Z,23.05
2022-08-30T06:57:53.219Z,23.14
2022-08-30T07:00:20.745Z,23.51
2022-08-30T07:02:51.065Z,23.95
2022-08-30T07:05:19.872Z,24.18
2022-08-30T07:07:50.710Z,23.78
2022-08-30T07:10:22.349Z,23.57
2022-08-30T07:12:52.567Z,23.61
2022-08-30T07:15:26.537Z,23.64
2022-08-30T07:17:59.415Z,23.78
2022-08-30T07:20:40.326Z,23.69
2022-08-30T07:23:10.063Z,23.64
2022-08-30T07:25:41.691Z,23.62
2022-08-30T07:28:10.487Z,23.49
2022-08-30T07:30:41.389Z,23.77
2022-08-30T07:33:12.202Z,23.71
2022-08-30T07:35:39.503Z,23.41
2022-08-30T07:38:12.292Z,23.46
2022-08-30T07:40:39.820Z,23.43
2022-08-30T07:43:13.307Z,23.51
2022-08-30T07:45:46.439Z,23.52
2022-08-30T07:48:14.288Z,23.50
2022-08-30T07:50:47.975Z,23.49
2022-08-30T07:53:15.402Z,23.45
2022-08-30T07:55:45.867Z,23.38
2022-08-30T07:58:17.134Z,23.52
2022-08-30T08:00:47.418Z,23.65
2022-08-30T08:03:20.404Z,23.76
2022-08-30T08:05:48.230Z,23.85
2022-08-30T08:08:15.709Z,23.82
2022-08-30T08:10:45.898Z,23.86
2022-08-30T08:13:16.357Z,23.93
2022-08-30T08:15:47.595Z,24.05
2022-08-30T08:18:15.453Z,24.02
2022-08-30T08:20:42.984Z,24.07
2022-08-30T08:23:10.374Z,24.13
2022-08-30T08:25:46.744Z,24.17
2022-08-30T08:28:17.843Z,24.20
2022-08-30T08:30:48.393Z,24.19
2022-08-30T08:33:17.319Z,24.21
2022-08-30T08:35:50.811Z,24.19
2022-08-30T08:38:21.051Z,24.23
2022-08-30T08:41:07.166Z,24.00
2022-08-30T08:43:36.731Z,24.15
2022-08-30T08:46:16.085Z,24.06
2022-08-30T08:48:59.971Z,24.29
2022-08-30T08:51:36.249Z,24.21
2022-08-30T08:54:18.785Z,24.38
2022-08-30T08:56:47.099Z,24.58
2022-08-30T08:59:16.821Z,24.72
2022-08-30T09:01:47.576Z,24.81
2022-08-30T09:04:22.012Z,24.85
2022-08-30T09:07:03.651Z,24.89
2022-08-30T09:09:37.661Z,24.73
2022-08-30T09:12:10.433Z,24.75
2022-08-30T09:14:46.571Z,24.78
2022-08-30T09:17:18.752Z,25.20
2022-08-30T09:19:56.543Z,25.45
2022-08-30T09:22:39.427Z,25.63
2022-08-30T09:25:12.798Z,25.68
2022-08-30T09:27:46.873Z,25.53
2022-08-30T09:30:27.122Z,25.45
2022-08-30T09:33:02.346Z,25.39
2022-08-30T09:35:41.558Z,26.02
2022-08-30T09:38:18.847Z,26.16
2022-08-30T09:40:49.878Z,26.21
2022-08-30T09:43:17.163Z,26.28
2022-08-30T09:46:04.379Z,26.61
2022-08-30T09:48:38.295Z,26.90
2022-08-30T09:51:15.202Z,27.09
2022-08-30T09:54:01.046Z,27.01
2022-08-30T09:56:42.390Z,26.94
2022-08-30T09:59:33.831Z,26.82
2022-08-30T10:02:23.127Z,26.77
2022-08-30T10:05:05.765Z,26.77
2022-08-30T10:08:00.037Z,26.91
2022-08-30T10:10:45.674Z,27.09
2022-08-30T10:13:37.019Z,27.05
2022-08-30T10:16:15.839Z,27.32
2022-08-30T10:19:10.873Z,27.54
2022-08-30T10:21:56.407Z,27.73
2022-08-30T10:27:38.494Z,27.37
2022-08-30T10:30:14.372Z,27.24
2022-08-30T10:32:50.233Z,27.13
2022-08-30T10:35:24.235Z,27.06
2022-08-30T10:37:59.991Z,27.00
2022-08-30T10:40:46.718Z,26.94
2022-08-30T10:43:33.478Z,27.00
2022-08-30T10:46:10.659Z,26.93
2022-08-30T10:48:44.435Z,26.87
2022-08-30T10:51:25.876Z,26.77
2022-08-30T10:53:59.042Z,26.74
2022-08-30T10:56:29.210Z,26.70
2022-08-30T10:58:57.619Z,26.68
2022-08-30T11:02:04.979Z,26.63
2022-08-30T11:07:58.319Z,26.85
2022-08-30T11:10:42.240Z,26.78
2022-08-30T11:13:29.437Z,26.86
2022-08-30T11:16:02.692Z,27.06
2022-08-30T11:18:41.566Z,27.09
2022-08-30T11:21:43.298Z,27.25
2022-08-30T11:24:23.283Z,27.23
2022-08-30T11:27:01.172Z,27.41
2022-08-30T11:29:42.206Z,27.58
2022-08-30T11:32:15.832Z,27.73
2022-08-30T11:34:46.269Z,27.75
2022-08-30T11:37:13.622Z,27.66
2022-08-30T11:39:50.693Z,27.75
2022-08-30T11:42:36.434Z,27.82
2022-08-30T11:45:26.865Z,27.82
2022-08-30T11:48:04.463Z,27.71
2022-08-30T11:50:55.175Z,27.51
2022-08-30T11:53:47.009Z,27.77
2022-08-30T11:56:28.353Z,27.45
2022-08-30T11:59:18.111Z,27.46
2022-08-30T12:01:50.651Z,27.43
2022-08-30T12:04:27.605Z,27.26
2022-08-30T12:07:00.955Z,27.32
2022-08-30T12:09:48.938Z,27.29
2022-08-30T12:12:25.711Z,27.32
2022-08-30T12:14:55.584Z,27.37
2022-08-30T12:17:54.793Z,27.10
2022-08-30T12:20:29.234Z,27.17
2022-08-30T12:23:13.291Z,27.30
2022-08-30T12:25:40.991Z,27.46
2022-08-30T12:28:32.924Z,27.47
2022-08-30T12:31:26.924Z,27.46
2022-08-30T12:34:02.429Z,27.35
2022-08-30T12:36:35.748Z,27.42
2022-08-30T12:39:36.852Z,27.47
2022-08-30T12:42:32.571Z,27.44
2022-08-30T12:45:09.798Z,27.42
2022-08-30T12:47:48.738Z,27.62
2022-08-30T12:50:21.330Z,27.71
2022-08-30T12:52:58.481Z,27.74
2022-08-30T12:55:31.042Z,27.60
2022-08-30T12:58:14.219Z,27.68
2022-08-30T13:00:45.743Z,27.62
2022-08-30T13:03:37.994Z,27.59
2022-08-30T13:06:06.931Z,27.41
2022-08-30T13:08:56.310Z,27.51
2022-08-30T13:11:29.717Z,27.55
2022-08-30T13:14:28.727Z,27.56
2022-08-30T13:17:07.970Z,27.41
2022-08-30T13:19:37.162Z,27.53
2022-08-30T13:22:05.494Z,27.58
2022-08-30T13:24:36.810Z,27.68
2022-08-30T13:27:07.037Z,27.76
2022-08-30T13:29:43.195Z,27.71
2022-08-30T13:32:11.429Z,27.67
2022-08-30T13:34:40.540Z,27.74
2022-08-30T13:40:04.757Z,27.73
2022-08-30T13:42:32.967Z,27.74
2022-08-30T13:45:40.971Z,27.65
2022-08-30T13:47:55.739Z,27.50
2022-08-30T13:50:26.113Z,27.43
2022-08-30T13:52:53.530Z,27.42
2022-08-30T13:55:27.535Z,27.37
2022-08-30T13:57:56.424Z,27.36
2022-08-30T14:00:36.774Z,27.35
2022-08-30T14:03:09.085Z,27.36
2022-08-30T14:05:54.560Z,27.43
2022-08-30T14:08:54.790Z,27.41
2022-08-30T14:11:26.138Z,27.38
2022-08-30T14:14:16.054Z,27.40
2022-08-30T14:16:53.318Z,27.39
2022-08-30T14:19:21.197Z,27.35
2022-08-30T14:21:51.085Z,27.38
2022-08-30T14:24:20.031Z,27.36
2022-08-30T14:26:52.699Z,27.44
2022-08-30T14:29:22.959Z,27.48
2022-08-30T14:31:56.424Z,27.51
2022-08-30T14:34:26.299Z,27.52
2022-08-30T14:36:53.914Z,27.53
2022-08-30T14:39:23.999Z,27.56
2022-08-30T14:41:55.577Z,27.57
2022-08-30T14:44:24.405Z,27.54
2022-08-30T14:46:55.624Z,27.58
2022-08-30T14:49:23.712Z,27.63
2022-08-30T14:51:55.013Z,27.65
2022-08-30T14:54:26.279Z,27.72
2022-08-30T14:56:58.543Z,27.76
2022-08-30T14:59:26.736Z,27.75
2022-08-30T15:01:57.396Z,27.84
2022-08-30T15:04:25.232Z,27.85
2022-08-30T15:06:56.590Z,27.86
2022-08-30T15:09:25.875Z,27.75
2022-08-30T15:11:58.511Z,27.72
2022-08-30T15:14:31.612Z,27.71
2022-08-30T15:17:22.763Z,27.63
2022-08-30T15:20:10.577Z,27.64
2022-08-30T15:22:57.413Z,27.68
2022-08-30T15:25:44.305Z,27.57
2022-08-30T15:28:33.676Z,27.57
2022-08-30T15:31:22.824Z,27.55
2022-08-30T15:33:53.995Z,27.47
2022-08-30T15:36:21.652Z,27.41
2022-08-30T15:38:49.220Z,27.46
2022-08-30T15:41:16.648Z,27.47
2022-08-30T15:43:47.301Z,27.50
2022-08-30T15:46:22.142Z,27.46
2022-08-30T15:48:53.034Z,27.40
2022-08-30T15:51:20.896Z,27.37
2022-08-30T15:53:50.011Z,27.29
2022-08-30T15:56:20.083Z,27.25
2022-08-30T15:58:48.421Z,27.13
2022-08-30T16:01:19.822Z,27.14
2022-08-30T16:04:01.027Z,27.15
2022-08-30T16:06:34.747Z,27.09
2022-08-30T16:09:02.153Z,27.04
2022-08-30T16:11:29.781Z,27.08
2022-08-30T16:13:57.702Z,27.08
2022-08-30T16:16:25.813Z,27.04
2022-08-30T16:18:55.096Z,27.00
2022-08-30T16:21:33.305Z,26.94
2022-08-30T16:24:10.601Z,26.83
2022-08-30T16:26:43.228Z,26.77
2022-08-30T16:29:14.510Z,26.74
2022-08-30T16:31:43.743Z,26.73
2022-08-30T16:34:13.688Z,26.69
2022-08-30T16:36:41.171Z,26.69
2022-08-30T16:39:10.388Z,26.62
2022-08-30T16:41:37.952Z,26.65
2022-08-30T16:44:06.859Z,26.60
2022-08-30T16:46:36.805Z,26.51
2022-08-30T16:49:04.380Z,26.41
2022-08-30T16:51:36.531Z,26.36
2022-08-30T16:54:07.798Z,26.34
2022-08-30T16:56:39.447Z,26.27
2022-08-30T16:59:11.169Z,26.19
2022-08-30T17:01:44.822Z,26.15
2022-08-30T17:04:19.422Z,26.06
2022-08-30T17:06:49.604Z,26.00
2022-08-30T17:09:21.159Z,25.92
2022-08-30T17:11:52.917Z,25.93
2022-08-30T17:14:28.162Z,26.05
2022-08-30T17:16:58.517Z,26.05
2022-08-30T17:19:28.906Z,26.08
2022-08-30T17:22:07.086Z,26.00
2022-08-30T17:24:39.762Z,25.88
2022-08-30T17:27:07.911Z,25.82
2022-08-30T17:29:38.442Z,25.71
2022-08-30T17:32:06.071Z,25.75
2022-08-30T17:34:37.236Z,25.74
2022-08-30T17:37:08.434Z,25.69
2022-08-30T17:39:49.115Z,25.62
2022-08-30T17:42:20.266Z,25.51
2022-08-30T17:44:53.984Z,25.55
2022-08-30T17:47:31.704Z,25.64
2022-08-30T17:50:11.243Z,25.53
2022-08-30T17:52:48.979Z,25.35
2022-08-30T17:55:30.658Z,25.36
2022-08-30T17:58:07.904Z,25.27
2022-08-30T18:00:39.999Z,25.33
2022-08-30T18:03:17.546Z,25.29
2022-08-30T18:05:55.113Z,25.27
2022-08-30T18:08:26.320Z,25.30
2022-08-30T18:11:05.979Z,25.32
2022-08-30T18:13:41.996Z,25.22
2022-08-30T18:16:14.124Z,25.21
2022-08-30T18:18:57.493Z,25.19
2022-08-30T18:21:30.098Z,25.17
2022-08-30T18:24:08.522Z,25.08
2022-08-30T18:32:36.090Z,25.01
2022-08-30T18:35:06.336Z,24.95
2022-08-30T18:37:34.181Z,24.90
2022-08-30T18:40:01.851Z,24.98
2022-08-30T18:42:29.920Z,25.18
2022-08-30T18:44:57.349Z,24.99
2022-08-30T18:47:30.762Z,25.04
2022-08-30T18:49:58.360Z,25.03
2022-08-30T18:52:25.874Z,24.95
2022-08-30T18:54:53.879Z,24.92
2022-08-30T18:57:26.198Z,24.95
2022-08-30T18:59:56.930Z,24.97
2022-08-30T19:02:27.480Z,24.93
2022-08-30T19:04:55.428Z,24.94
2022-08-30T19:07:28.993Z,24.90
2022-08-30T19:10:02.006Z,24.87
2022-08-30T19:12:30.975Z,24.78
2022-08-30T19:15:00.649Z,24.71
2022-08-30T19:17:28.146Z,24.81
2022-08-30T19:19:55.740Z,24.84
2022-08-30T19:22:24.041Z,24.80
2022-08-30T19:24:54.891Z,24.83
2022-08-30T19:27:38.144Z,24.72
2022-08-30T19:30:11.407Z,24.69
2022-08-30T19:32:38.816Z,24.69
2022-08-30T19:35:07.588Z,24.76
2022-08-30T19:37:36.672Z,24.67
2022-08-30T19:40:06.741Z,24.59
2022-08-30T19:42:43.380Z,24.61
2022-08-30T19:45:18.963Z,24.63
2022-08-30T19:47:51.231Z,24.64
2022-08-30T19:50:22.190Z,24.56
2022-08-30T19:52:54.156Z,24.54
2022-08-30T19:55:28.718Z,24.73
2022-08-30T19:57:59.683Z,24.76
2022-08-30T20:00:27.610Z,24.72
2022-08-30T20:02:59.801Z,24.79
2022-08-30T20:05:29.343Z,24.57
2022-08-30T20:07:58.522Z,24.39
2022-08-30T20:10:26.825Z,24.36
2022-08-30T20:12:54.479Z,24.33
2022-08-30T20:15:23.180Z,24.29
2022-08-30T20:18:05.066Z,24.30
2022-08-30T20:20:36.685Z,24.32
2022-08-30T20:23:05.739Z,24.31
2022-08-30T20:25:34.738Z,24.25
2022-08-30T20:28:02.778Z,24.29
2022-08-30T20:30:30.719Z,24.26
2022-08-30T20:33:00.704Z,24.21
2022-08-30T20:35:30.072Z,24.13
2022-08-30T20:37:57.499Z,24.11
2022-08-30T20:40:24.869Z,24.11
2022-08-30T20:42:52.528Z,24.05
2022-08-30T20:45:21.528Z,24.05
2022-08-30T20:47:51.807Z,24.08
2022-08-30T20:50:19.677Z,23.98
2022-08-30T20:52:47.332Z,23.93
2022-08-30T20:55:14.770Z,23.83
2022-08-30T20:57:42.714Z,23.78
2022-08-30T21:00:13.184Z,23.71
2022-08-30T21:02:46.940Z,23.67
2022-08-30T21:05:17.189Z,23.61
2022-08-30T21:07:47.053Z,23.53
2022-08-30T21:10:15.185Z,23.48
2022-08-30T21:12:43.768Z,23.40
2022-08-30T21:15:33.736Z,23.36
2022-08-30T21:17:59.701Z,23.43
2022-08-30T21:20:28.060Z,23.32
2022-08-30T21:22:55.423Z,23.34
2022-08-30T21:25:22.778Z,23.36
2022-08-30T21:27:51.135Z,23.31
2022-08-30T21:30:18.896Z,23.24
2022-08-30T21:32:46.432Z,23.38
2022-08-30T21:35:13.939Z,23.35
2022-08-30T21:37:41.237Z,23.36
2022-08-30T21:40:09.529Z,23.28
2022-08-30T21:42:45.262Z,23.23
2022-08-30T21:45:14.276Z,23.22
2022-08-30T21:47:42.029Z,23.16
2022-08-30T21:50:10.206Z,23.11
2022-08-30T21:52:38.109Z,23.08
2022-08-30T21:55:06.973Z,23.18
2022-08-30T21:57:34.442Z,23.22
2022-08-30T22:00:04.939Z,23.26
2022-08-30T22:02:33.084Z,23.29
2022-08-30T22:05:00.443Z,23.21
2022-08-30T22:07:27.940Z,23.19
2022-08-30T22:09:55.292Z,23.23
2022-08-30T22:12:22.698Z,23.25
2022-08-30T22:14:53.330Z,23.31
2022-08-30T22:17:21.049Z,23.25
2022-08-30T22:19:48.424Z,23.19
2022-08-30T22:22:15.946Z,23.16
2022-08-30T22:24:43.366Z,23.17
2022-08-30T22:27:10.808Z,23.22
2022-08-30T22:29:38.950Z,23.17
2022-08-30T22:32:06.599Z,23.23
2022-08-30T22:34:34.125Z,23.22
2022-08-30T22:37:01.799Z,23.23
2022-08-30T22:39:29.331Z,23.05
2022-08-30T22:41:56.718Z,22.98
2022-08-30T22:44:24.179Z,22.98
2022-08-30T22:46:51.503Z,22.85
2022-08-30T22:49:18.912Z,22.76
2022-08-30T22:51:46.366Z,22.77
2022-08-30T22:54:13.720Z,22.74
2022-08-30T22:56:41.357Z,22.75
2022-08-30T22:59:08.901Z,22.68
2022-08-30T23:01:40.169Z,22.59
2022-08-30T23:04:09.380Z,22.56
2022-08-30T23:06:37.075Z,22.64
2022-08-30T23:09:06.031Z,22.60
2022-08-30T23:11:33.657Z,22.48
2022-08-30T23:14:03.027Z,22.57
2022-08-30T23:16:30.718Z,22.51
2022-08-30T23:18:58.645Z,22.49
2022-08-30T23:21:29.033Z,22.58
2022-08-30T23:23:57.432Z,22.52
2022-08-30T23:26:25.549Z,22.59
2022-08-30T23:28:52.913Z,22.60
2022-08-30T23:31:20.875Z,22.63
2022-08-30T23:33:48.157Z,22.65
2022-08-30T23:36:15.532Z,22.61
2022-08-30T23:38:43.010Z,22.61
2022-08-30T23:41:10.326Z,22.56
2022-08-30T23:43:37.978Z,22.63
2022-08-30T23:46:05.586Z,22.69
2022-08-30T23:48:33.358Z,22.70
2022-08-30T23:51:03.344Z,22.66
2022-08-30T23:53:30.651Z,22.59
2022-08-30T23:55:58.850Z,22.54
2022-08-30T23:58:26.313Z,22.51
